Time;durP1;ratioP1;P1;durP2;ratioP2;P2;SDS_P1;SDS_P2;PMS_P1;PMS_P2;Temp;Humidity;BMP_temperature;BMP_pressure;BME280_temperature;BME280_humidity;BME280_pressure;Samples;Min_cycle;Max_cycle;Signal;HPM_P1;HPM_P2
2022/08/08 00:00:01;;;;;;;;;;;;;;;23.41;79.68;99677.25;5058588;28;19973;-51
2022/08/08 00:02:45;;;;;;;;;;;;;;;24.12;74.86;99672.75;5066883;28;19920;-49
2022/08/08 00:05:22;;;;;;;;;;;;;;;23.73;75.78;99678.28;5061936;28;19920;-52
2022/08/08 00:07:50;;;;;;;;;;;;;;;23.48;77.99;99678.47;5062913;28;19967;-49
2022/08/08 00:10:21;;;;;;;;;;;;;;;23.83;75.61;99678.44;5058775;28;19943;-48
2022/08/08 00:13:02;;;;;;;;;;;;;;;23.12;77.45;99683.69;5068945;28;19994;-53
2022/08/08 00:15:28;;;;;;;;;;;;;;;22.21;83.07;99685.78;5061586;28;20365;-49
2022/08/08 00:18:16;;;;;;;;;;;;;;;22.60;84.27;99676.06;5066108;28;19913;-52
2022/08/08 00:20:52;;;;;;;;;;;;;;;22.68;84.27;99676.38;5061034;28;19912;-52
2022/08/08 00:23:20;;;;;;;;;;;;;;;22.76;83.89;99676.66;5055151;28;19920;-48
2022/08/08 00:25:47;;;;;;;;;;;;;;;22.71;83.92;99673.53;5056965;28;19969;-49
2022/08/08 00:28:13;;;;;;;;;;;;;;;22.24;86.37;99675.13;5059598;28;19920;-50
2022/08/08 00:30:40;;;;;;;;;;;;;;;22.48;85.04;99672.53;5063320;28;19925;-50
2022/08/08 00:33:24;;;;;;;;;;;;;;;22.46;84.74;99671.81;5062583;28;19963;-50
2022/08/08 00:36:01;;;;;;;;;;;;;;;22.43;84.51;99679.91;5066286;28;20415;-50
2022/08/08 00:38:40;;;;;;;;;;;;;;;22.12;85.87;99676.75;5061868;28;20006;-52
2022/08/08 00:41:11;;;;;;;;;;;;;;;22.16;86.81;99678.22;5022009;28;19923;-52
2022/08/08 00:43:57;;;;;;;;;;;;;;;21.79;88.68;99669.44;5065006;28;19924;-53
2022/08/08 00:46:41;;;;;;;;;;;;;;;21.77;89.36;99673.94;5037494;28;19924;-49
2022/08/08 00:49:25;;;;;;;;;;;;;;;21.88;90.16;99674.88;5058196;28;19928;-48
2022/08/08 00:51:53;;;;;;;;;;;;;;;21.67;92.87;99678.97;5065164;28;19973;-49
2022/08/08 00:54:36;;;;;;;;;;;;;;;21.54;93.76;99681.56;5058727;28;19968;-52
2022/08/08 00:57:02;;;;;;;;;;;;;;;21.26;96.58;99677.28;5062057;28;19920;-50
2022/08/08 00:59:31;;;;;;;;;;;;;;;21.60;95.77;99675.91;5054703;28;19925;-49
2022/08/08 01:02:05;;;;;;;;;;;;;;;20.96;100.00;99685.31;5060648;28;19978;-49
2022/08/08 01:04:45;;;;;;;;;;;;;;;20.79;100.00;99675.94;5062826;28;20289;-49
2022/08/08 01:07:30;;;;;;;;;;;;;;;20.85;100.00;99676.38;5062429;28;19924;-50
2022/08/08 01:10:11;;;;;;;;;;;;;;;21.38;100.00;99665.97;5062793;28;19920;-50
2022/08/08 01:12:54;;;;;;;;;;;;;;;21.51;100.00;99668.66;5059644;28;20019;-48
2022/08/08 01:15:29;;;;;;;;;;;;;;;22.22;95.52;99666.50;5063780;28;20000;-51
2022/08/08 01:18:13;;;;;;;;;;;;;;;22.62;93.48;99663.69;5060621;28;19925;-49
2022/08/08 01:21:03;;;;;;;;;;;;;;;23.10;89.98;99669.00;5057588;28;20013;-47
2022/08/08 01:23:28;;;;;;;;;;;;;;;22.23;91.79;99668.19;5037540;28;19963;-48
2022/08/08 01:26:14;;;;;;;;;;;;;;;22.39;94.01;99674.03;5054317;28;20019;-49
2022/08/08 01:28:48;;;;;;;;;;;;;;;22.03;95.75;99670.38;5032448;28;19925;-50
2022/08/08 01:31:22;;;;;;;;;;;;;;;22.67;92.43;99677.31;5054978;28;19921;-48
2022/08/08 01:33:48;;;;;;;;;;;;;;;22.53;93.06;99673.03;5060108;28;19917;-51
2022/08/08 01:36:22;;;;;;;;;;;;;;;22.05;93.63;99671.09;5066070;28;19920;-48
2022/08/08 01:39:06;;;;;;;;;;;;;;;21.96;94.52;99679.59;5059630;28;19925;-48
2022/08/08 01:41:37;;;;;;;;;;;;;;;21.74;94.05;99685.47;5058257;28;19916;-50
2022/08/08 01:44:02;;;;;;;;;;;;;;;21.37;94.69;99687.03;5062692;28;20754;-51
2022/08/08 01:46:30;;;;;;;;;;;;;;;21.04;95.96;99680.44;5059479;28;19931;-51
2022/08/08 01:48:58;;;;;;;;;;;;;;;21.71;93.74;99678.66;5067177;28;19926;-49
2022/08/08 01:51:23;;;;;;;;;;;;;;;21.79;93.33;99677.28;5055531;28;20366;-48
2022/08/08 01:54:05;;;;;;;;;;;;;;;21.56;93.16;99677.06;5058778;28;19931;-49
2022/08/08 01:56:33;;;;;;;;;;;;;;;21.34;95.07;99674.16;5060449;28;19924;-47
2022/08/08 01:59:18;;;;;;;;;;;;;;;20.92;95.54;99678.63;5064563;28;19928;-49
2022/08/08 02:01:46;;;;;;;;;;;;;;;21.18;95.12;99677.75;5033791;28;20017;-51
2022/08/08 02:04:19;;;;;;;;;;;;;;;21.51;93.90;99671.28;5065873;28;19920;-51
2022/08/08 02:07:03;;;;;;;;;;;;;;;21.25;94.37;99671.19;5055073;28;20389;-50
2022/08/08 02:09:37;;;;;;;;;;;;;;;21.43;93.76;99668.31;5063220;28;19926;-47
2022/08/08 02:12:05;;;;;;;;;;;;;;;21.67;94.99;99671.94;5063294;28;19916;-50
2022/08/08 02:14:39;;;;;;;;;;;;;;;22.00;92.38;99673.19;5063125;28;20013;-48
2022/08/08 02:17:19;;;;;;;;;;;;;;;22.09;91.65;99669.94;5064576;28;19952;-49
2022/08/08 02:19:46;;;;;;;;;;;;;;;22.10;91.61;99674.25;5053474;28;19927;-47
2022/08/08 02:22:31;;;;;;;;;;;;;;;21.84;92.39;99677.81;5053785;28;19924;-49
2022/08/08 02:25:15;;;;;;;;;;;;;;;20.96;94.69;99678.31;5053668;28;20039;-52
2022/08/08 02:27:51;;;;;;;;;;;;;;;21.40;94.96;99679.00;5064438;28;20026;-48
2022/08/08 02:30:18;;;;;;;;;;;;;;;21.92;93.11;99671.13;5061090;28;19920;-51
2022/08/08 02:32:52;;;;;;;;;;;;;;;21.63;93.69;99675.69;5060015;28;19920;-48
2022/08/08 02:35:29;;;;;;;;;;;;;;;20.74;96.32;99678.84;5061719;28;19920;-48
2022/08/08 02:38:14;;;;;;;;;;;;;;;21.71;94.60;99668.16;5061380;28;20424;-52
2022/08/08 02:40:58;;;;;;;;;;;;;;;21.68;94.67;99670.97;5056438;28;19928;-48
2022/08/08 02:43:42;;;;;;;;;;;;;;;22.12;93.68;99659.25;5061824;28;20392;-48
2022/08/08 02:46:26;;;;;;;;;;;;;;;21.86;93.53;99660.19;5061232;28;19928;-46
2022/08/08 02:49:03;;;;;;;;;;;;;;;21.46;95.37;99668.13;5061742;28;19931;-50
2022/08/08 02:51:29;;;;;;;;;;;;;;;21.85;93.98;99659.38;5060815;28;19921;-47
2022/08/08 02:53:57;;;;;;;;;;;;;;;21.71;94.45;99662.94;5062655;28;19920;-50
2022/08/08 02:56:30;;;;;;;;;;;;;;;21.50;96.28;99664.34;5057994;28;19920;-50
2022/08/08 02:59:25;;;;;;;;;;;;;;;21.64;94.74;99656.41;5055571;28;20014;-50
2022/08/08 03:02:09;;;;;;;;;;;;;;;20.74;99.23;99671.00;5047859;28;20032;-49
2022/08/08 03:04:46;;;;;;;;;;;;;;;20.87;99.31;99669.28;5054882;28;19995;-51
2022/08/08 03:07:25;;;;;;;;;;;;;;;21.07;99.46;99667.13;5057327;28;19929;-49
2022/08/08 03:10:10;;;;;;;;;;;;;;;21.70;94.66;99661.22;5054366;28;19959;-51
2022/08/08 03:12:35;;;;;;;;;;;;;;;21.50;93.76;99666.97;5060111;28;20310;-51
2022/08/08 03:15:12;;;;;;;;;;;;;;;20.78;99.81;99671.66;5059554;28;19916;-49
2022/08/08 03:17:48;;;;;;;;;;;;;;;19.64;100.00;99688.97;5059996;28;19927;-48
2022/08/08 03:20:14;;;;;;;;;;;;;;;20.46;100.00;99683.16;5051033;28;19964;-47
2022/08/08 03:22:48;;;;;;;;;;;;;;;20.04;100.00;99686.63;5053360;28;19924;-51
2022/08/08 03:25:15;;;;;;;;;;;;;;;20.40;100.00;99693.16;5053585;28;19943;-49
2022/08/08 03:27:41;;;;;;;;;;;;;;;20.35;100.00;99695.22;5056017;28;19932;-49
2022/08/08 03:30:07;;;;;;;;;;;;;;;20.25;100.00;99702.78;5059945;28;19964;-50
2022/08/08 03:35:17;;;;;;;;;;;;;;;20.40;100.00;99699.22;5064782;28;19972;-49
2022/08/08 03:37:44;;;;;;;;;;;;;;;20.40;100.00;99699.22;5060646;28;20373;-48
2022/08/08 03:40:09;;;;;;;;;;;;;;;20.34;100.00;99699.59;5054192;28;19920;-49
2022/08/08 03:42:37;;;;;;;;;;;;;;;19.71;100.00;99706.00;5060504;28;19976;-49
2022/08/08 03:45:16;;;;;;;;;;;;;;;19.45;100.00;99715.28;5057397;28;20360;-49
2022/08/08 03:47:41;;;;;;;;;;;;;;;19.59;100.00;99711.88;5059912;28;19924;-50
2022/08/08 03:50:18;;;;;;;;;;;;;;;19.47;100.00;99718.66;5056347;28;20463;-48
2022/08/08 03:52:44;;;;;;;;;;;;;;;20.05;100.00;99707.44;5053603;28;19932;-48
2022/08/08 03:55:10;;;;;;;;;;;;;;;20.14;100.00;99718.28;5056135;28;19920;-50
2022/08/08 03:57:35;;;;;;;;;;;;;;;20.06;100.00;99711.72;5056836;28;19921;-50
2022/08/08 04:00:07;;;;;;;;;;;;;;;19.86;100.00;99712.06;5057027;28;19920;-49
2022/08/08 04:02:32;;;;;;;;;;;;;;;20.29;100.00;99711.28;5064985;28;19920;-48
2022/08/08 04:05:01;;;;;;;;;;;;;;;19.99;100.00;99718.25;5057992;28;20395;-48
2022/08/08 04:07:33;;;;;;;;;;;;;;;19.65;100.00;99722.81;5054681;28;19924;-51
2022/08/08 04:09:58;;;;;;;;;;;;;;;19.48;100.00;99725.59;5057707;28;20542;-48
2022/08/08 04:12:24;;;;;;;;;;;;;;;19.86;100.00;99722.53;5057894;28;19960;-50
2022/08/08 04:14:49;;;;;;;;;;;;;;;20.35;100.00;99716.16;5055737;28;19959;-48
2022/08/08 04:17:14;;;;;;;;;;;;;;;20.66;100.00;99712.50;5063747;28;20866;-48
2022/08/08 04:19:39;;;;;;;;;;;;;;;20.73;98.91;99705.09;5063506;28;19920;-47
2022/08/08 04:22:04;;;;;;;;;;;;;;;20.71;97.55;99702.59;5072453;28;19974;-47
2022/08/08 04:24:30;;;;;;;;;;;;;;;20.74;99.21;99710.25;5057691;28;19923;-48
2022/08/08 04:26:55;;;;;;;;;;;;;;;21.04;97.74;99714.50;5063378;28;19920;-48
2022/08/08 04:29:20;;;;;;;;;;;;;;;20.95;97.19;99715.06;5071254;28;19928;-49
2022/08/08 04:31:46;;;;;;;;;;;;;;;20.70;97.84;99716.63;5058812;28;20727;-47
2022/08/08 04:34:11;;;;;;;;;;;;;;;20.80;98.14;99717.72;5070898;28;20755;-48
2022/08/08 04:36:36;;;;;;;;;;;;;;;21.02;97.36;99711.97;5059294;28;19969;-48
2022/08/08 04:39:02;;;;;;;;;;;;;;;21.49;96.38;99704.63;5062521;28;19920;-49
2022/08/08 04:41:27;;;;;;;;;;;;;;;21.26;96.38;99709.56;5060826;28;19985;-49
2022/08/08 04:43:53;;;;;;;;;;;;;;;21.59;96.06;99705.66;5064066;28;19924;-50
2022/08/08 04:46:18;;;;;;;;;;;;;;;21.10;96.63;99714.94;5066948;28;19923;-49
2022/08/08 04:48:43;;;;;;;;;;;;;;;21.47;96.35;99716.97;5070167;28;19922;-46
2022/08/08 04:51:08;;;;;;;;;;;;;;;21.78;96.65;99714.94;5059955;28;20452;-49
2022/08/08 04:53:34;;;;;;;;;;;;;;;21.89;95.48;99728.16;5058771;28;20290;-47
2022/08/08 04:55:59;;;;;;;;;;;;;;;21.63;94.06;99727.28;5057561;28;20350;-50
2022/08/08 04:58:24;;;;;;;;;;;;;;;21.77;94.28;99729.00;5065637;28;20713;-51
2022/08/08 05:00:49;;;;;;;;;;;;;;;21.68;96.58;99746.16;5063312;28;19985;-50
2022/08/08 05:03:14;;;;;;;;;;;;;;;21.51;96.94;99739.44;5062783;28;19938;-48
2022/08/08 05:05:40;;;;;;;;;;;;;;;22.02;97.00;99736.88;5060216;28;19920;-49
2022/08/08 05:08:05;;;;;;;;;;;;;;;21.87;93.80;99738.78;5068442;28;20050;-50
2022/08/08 05:10:30;;;;;;;;;;;;;;;21.49;97.71;99746.56;5065339;28;19920;-51
2022/08/08 05:12:56;;;;;;;;;;;;;;;21.49;99.99;99751.78;5060602;28;20070;-47
2022/08/08 05:15:21;;;;;;;;;;;;;;;22.22;96.97;99740.81;5066861;28;20110;-48
2022/08/08 05:17:46;;;;;;;;;;;;;;;22.38;95.10;99743.22;5066392;28;19920;-49
2022/08/08 05:20:11;;;;;;;;;;;;;;;22.60;94.51;99734.66;5066380;28;19921;-51
2022/08/08 05:22:37;;;;;;;;;;;;;;;22.76;93.95;99745.78;5064022;28;19920;-49
2022/08/08 05:25:02;;;;;;;;;;;;;;;22.67;94.30;99738.56;5063326;28;19920;-48
2022/08/08 05:27:27;;;;;;;;;;;;;;;22.94;93.13;99732.28;5059363;28;20023;-49
2022/08/08 05:29:53;;;;;;;;;;;;;;;23.01;92.18;99732.72;5062617;28;19928;-48
2022/08/08 05:32:18;;;;;;;;;;;;;;;23.32;92.73;99737.41;5060220;28;19919;-50
2022/08/08 05:34:50;;;;;;;;;;;;;;;23.27;90.85;99738.72;5058538;28;19920;-51
2022/08/08 05:37:16;;;;;;;;;;;;;;;23.28;91.04;99741.22;5061667;28;20034;-50
2022/08/08 05:39:42;;;;;;;;;;;;;;;23.51;90.33;99742.16;5056954;28;19917;-51
2022/08/08 05:42:08;;;;;;;;;;;;;;;23.50;89.55;99739.66;5060541;28;20023;-49
2022/08/08 05:44:33;;;;;;;;;;;;;;;23.46;88.88;99738.19;5058995;28;20195;-51
2022/08/08 05:46:58;;;;;;;;;;;;;;;23.76;90.41;99740.38;5060255;28;20437;-52
2022/08/08 05:49:24;;;;;;;;;;;;;;;24.05;89.83;99746.06;5061162;28;19936;-48
2022/08/08 05:51:49;;;;;;;;;;;;;;;24.15;89.30;99747.03;5064356;28;19931;-49
2022/08/08 05:54:15;;;;;;;;;;;;;;;24.01;90.02;99747.25;5056960;28;20103;-49
2022/08/08 05:56:41;;;;;;;;;;;;;;;24.04;88.35;99749.66;5057165;28;20015;-48
2022/08/08 05:59:09;;;;;;;;;;;;;;;24.32;88.50;99752.81;5065281;28;20015;-49
2022/08/08 06:01:34;;;;;;;;;;;;;;;24.26;88.49;99748.00;5060965;28;19927;-48
2022/08/08 06:04:01;;;;;;;;;;;;;;;24.42;87.57;99748.50;5059500;28;20450;-49
2022/08/08 06:06:27;;;;;;;;;;;;;;;24.46;87.86;99739.41;5064125;28;19931;-52
2022/08/08 06:08:53;;;;;;;;;;;;;;;24.75;85.99;99741.59;5053947;28;20885;-49
2022/08/08 06:11:18;;;;;;;;;;;;;;;24.72;85.55;99749.69;5063812;28;19923;-51
2022/08/08 06:13:45;;;;;;;;;;;;;;;24.79;86.42;99741.22;5064134;28;19917;-48
2022/08/08 06:16:10;;;;;;;;;;;;;;;24.67;84.38;99741.34;5061500;28;19972;-52
2022/08/08 06:18:36;;;;;;;;;;;;;;;25.34;84.87;99740.38;5059089;28;20599;-49
2022/08/08 06:21:02;;;;;;;;;;;;;;;25.01;84.36;99742.94;5061997;28;19917;-52
2022/08/08 06:23:27;;;;;;;;;;;;;;;25.39;84.18;99743.50;5059183;28;19920;-51
2022/08/08 06:25:57;;;;;;;;;;;;;;;25.88;81.90;99740.25;5055390;28;20035;-50
2022/08/08 06:28:33;;;;;;;;;;;;;;;25.46;83.41;99745.47;5058467;28;20263;-51
2022/08/08 06:30:59;;;;;;;;;;;;;;;26.15;79.67;99746.81;5055002;28;19917;-51
2022/08/08 06:33:27;;;;;;;;;;;;;;;26.08;78.21;99745.66;5060785;28;19920;-52
2022/08/08 06:35:52;;;;;;;;;;;;;;;26.45;77.50;99742.50;5061827;28;19982;-49
2022/08/08 06:38:18;;;;;;;;;;;;;;;26.53;75.76;99744.50;5060944;28;20486;-49
2022/08/08 06:40:43;;;;;;;;;;;;;;;25.30;73.10;99745.06;5055326;28;19940;-48
2022/08/08 06:43:09;;;;;;;;;;;;;;;25.27;75.61;99755.84;5054663;28;20437;-50
2022/08/08 06:45:36;;;;;;;;;;;;;;;25.74;72.40;99743.19;5062047;28;19986;-49
2022/08/08 06:48:02;;;;;;;;;;;;;;;26.23;69.70;99739.09;5052185;28;19930;-49
2022/08/08 06:50:27;;;;;;;;;;;;;;;26.62;70.40;99744.56;5058175;28;19924;-49
2022/08/08 06:52:53;;;;;;;;;;;;;;;27.03;67.04;99750.66;5057032;28;19916;-52
2022/08/08 06:55:20;;;;;;;;;;;;;;;27.04;68.74;99752.31;5062628;28;19920;-49
2022/08/08 06:57:45;;;;;;;;;;;;;;;27.06;64.81;99747.72;5063055;28;20028;-49
2022/08/08 07:00:11;;;;;;;;;;;;;;;27.21;70.92;99760.56;5056527;28;20456;-51
2022/08/08 07:02:36;;;;;;;;;;;;;;;27.35;67.21;99760.19;5062923;28;20408;-49
2022/08/08 07:05:04;;;;;;;;;;;;;;;27.27;63.95;99760.03;5061828;28;19920;-48
2022/08/08 07:07:30;;;;;;;;;;;;;;;25.79;70.41;99777.94;5055369;28;20770;-49
2022/08/08 07:09:58;;;;;;;;;;;;;;;26.22;71.35;99774.38;5062895;28;19951;-50
2022/08/08 07:12:27;;;;;;;;;;;;;;;25.80;75.60;99777.00;5058032;28;19931;-49
2022/08/08 07:14:53;;;;;;;;;;;;;;;25.74;78.19;99774.84;5063327;28;19924;-52
2022/08/08 07:17:20;;;;;;;;;;;;;;;25.77;80.26;99779.91;5062754;28;19930;-51
2022/08/08 07:19:45;;;;;;;;;;;;;;;26.50;78.74;99778.16;5046637;28;19947;-51
2022/08/08 07:22:11;;;;;;;;;;;;;;;27.51;75.58;99778.16;5056523;28;19920;-51
2022/08/08 07:24:36;;;;;;;;;;;;;;;27.15;68.01;99774.34;5054981;28;19927;-51
2022/08/08 07:27:01;;;;;;;;;;;;;;;27.93;66.52;99777.88;5055286;28;19928;-50
2022/08/08 07:29:27;;;;;;;;;;;;;;;26.95;72.06;99787.50;5053940;28;19927;-49
2022/08/08 07:31:52;;;;;;;;;;;;;;;26.74;74.37;99789.38;5054609;28;20042;-51
2022/08/08 07:34:17;;;;;;;;;;;;;;;27.43;73.23;99785.94;5061080;28;20168;-48
2022/08/08 07:36:43;;;;;;;;;;;;;;;27.66;68.75;99783.84;5057926;28;19916;-49
2022/08/08 07:39:08;;;;;;;;;;;;;;;26.44;77.19;99796.31;5064455;28;19928;-50
2022/08/08 07:41:35;;;;;;;;;;;;;;;26.49;81.88;99807.31;5059479;28;19920;-50
2022/08/08 07:44:00;;;;;;;;;;;;;;;26.20;84.25;99813.25;5063431;28;20414;-50
2022/08/08 07:46:26;;;;;;;;;;;;;;;26.60;80.21;99799.34;5067894;28;19920;-51
2022/08/08 07:48:51;;;;;;;;;;;;;;;27.46;79.14;99799.75;5057012;28;20011;-51
2022/08/08 07:51:16;;;;;;;;;;;;;;;28.53;71.01;99790.84;5058866;28;20604;-49
2022/08/08 07:53:46;;;;;;;;;;;;;;;28.77;67.10;99799.13;5060446;28;19920;-52
2022/08/08 07:56:12;;;;;;;;;;;;;;;27.99;69.65;99800.31;5055816;28;19963;-52
2022/08/08 07:58:38;;;;;;;;;;;;;;;28.36;67.89;99805.69;5070709;28;20014;-49
2022/08/08 08:01:05;;;;;;;;;;;;;;;27.41;70.65;99796.66;5062082;28;20674;-50
2022/08/08 08:03:36;;;;;;;;;;;;;;;27.58;73.91;99812.84;5065266;28;19920;-48
2022/08/08 08:06:03;;;;;;;;;;;;;;;28.36;72.18;99810.97;5059859;28;20427;-49
2022/08/08 08:08:31;;;;;;;;;;;;;;;28.04;71.53;99817.44;5074236;28;19971;-49
2022/08/08 08:10:56;;;;;;;;;;;;;;;27.40;70.35;99813.50;5057270;28;20288;-50
2022/08/08 08:13:31;;;;;;;;;;;;;;;27.36;72.52;99806.00;5058467;28;19920;-50
2022/08/08 08:16:00;;;;;;;;;;;;;;;28.93;66.59;99802.97;5067392;28;19916;-51
2022/08/08 08:18:28;;;;;;;;;;;;;;;28.88;63.29;99799.94;5061731;28;20323;-50
2022/08/08 08:20:53;;;;;;;;;;;;;;;29.34;63.60;99798.97;5056482;28;19919;-50
2022/08/08 08:23:18;;;;;;;;;;;;;;;30.62;55.93;99792.31;5059404;28;19966;-49
2022/08/08 08:25:43;;;;;;;;;;;;;;;29.65;54.81;99795.09;5056714;28;19916;-51
2022/08/08 08:28:09;;;;;;;;;;;;;;;29.26;62.67;99803.34;5060881;28;19921;-49
2022/08/08 08:30:34;;;;;;;;;;;;;;;30.69;54.10;99797.03;5064237;28;19965;-52
2022/08/08 08:32:59;;;;;;;;;;;;;;;28.40;56.84;99808.88;5061464;28;19924;-50
2022/08/08 08:35:24;;;;;;;;;;;;;;;27.86;61.95;99808.56;5063626;28;20452;-49
2022/08/08 08:37:50;;;;;;;;;;;;;;;29.26;59.20;99803.34;5058849;28;19967;-49
2022/08/08 08:40:15;;;;;;;;;;;;;;;30.04;56.60;99803.59;5064187;28;19974;-49
2022/08/08 08:42:40;;;;;;;;;;;;;;;29.38;55.80;99807.47;5063495;28;19955;-48
2022/08/08 08:45:06;;;;;;;;;;;;;;;29.81;57.40;99798.78;5059047;28;19920;-52
2022/08/08 08:47:31;;;;;;;;;;;;;;;28.71;56.43;99810.31;5059915;28;19925;-51
2022/08/08 08:49:56;;;;;;;;;;;;;;;30.02;53.03;99803.75;5066272;28;19920;-52
2022/08/08 08:52:21;;;;;;;;;;;;;;;29.40;53.75;99805.50;5064702;28;19965;-52
2022/08/08 08:54:47;;;;;;;;;;;;;;;29.09;53.03;99805.84;5064221;28;20027;-48
2022/08/08 08:57:12;;;;;;;;;;;;;;;30.08;52.32;99804.09;5066613;28;19920;-52
2022/08/08 08:59:39;;;;;;;;;;;;;;;29.68;52.18;99803.63;5063369;28;20851;-50
2022/08/08 09:02:05;;;;;;;;;;;;;;;29.47;55.22;99811.88;5056454;28;20401;-51
2022/08/08 09:04:32;;;;;;;;;;;;;;;29.67;52.18;99817.84;5058445;28;19955;-50
2022/08/08 09:06:57;;;;;;;;;;;;;;;29.90;49.36;99804.13;5057930;28;19966;-50
2022/08/08 09:09:24;;;;;;;;;;;;;;;30.06;46.34;99806.09;5060813;28;20051;-53
2022/08/08 09:11:50;;;;;;;;;;;;;;;30.89;45.92;99809.09;5061294;28;19927;-51
2022/08/08 09:14:15;;;;;;;;;;;;;;;31.59;47.89;99811.47;5055888;28;20031;-49
2022/08/08 09:16:40;;;;;;;;;;;;;;;30.14;47.49;99814.13;5062209;28;19924;-49
2022/08/08 09:19:06;;;;;;;;;;;;;;;29.90;49.08;99806.78;5057226;28;20035;-51
2022/08/08 09:21:31;;;;;;;;;;;;;;;30.71;48.89;99809.16;5061341;28;19930;-51
2022/08/08 09:23:56;;;;;;;;;;;;;;;30.29;51.98;99814.41;5046388;28;19971;-49
2022/08/08 09:26:24;;;;;;;;;;;;;;;30.65;48.01;99812.44;5054177;28;19921;-53
2022/08/08 09:28:50;;;;;;;;;;;;;;;30.02;48.75;99808.22;5060009;28;19961;-52
2022/08/08 09:31:15;;;;;;;;;;;;;;;29.51;47.01;99807.09;5058914;28;20023;-51
2022/08/08 09:33:41;;;;;;;;;;;;;;;31.59;46.47;99808.81;5059928;28;20061;-51
2022/08/08 09:36:07;;;;;;;;;;;;;;;32.59;40.06;99797.88;5066525;28;19971;-51
2022/08/08 09:38:41;;;;;;;;;;;;;;;31.58;44.54;99800.97;5064496;28;20815;-51
2022/08/08 09:41:06;;;;;;;;;;;;;;;31.57;42.36;99802.81;5062427;28;19920;-52
2022/08/08 09:43:35;;;;;;;;;;;;;;;31.44;46.98;99807.78;5057591;28;19920;-50
2022/08/08 09:46:01;;;;;;;;;;;;;;;28.56;48.63;99811.78;5058238;28;20338;-52
2022/08/08 09:48:30;;;;;;;;;;;;;;;30.31;45.49;99800.00;5058838;28;19991;-49
2022/08/08 09:50:57;;;;;;;;;;;;;;;30.12;45.52;99803.63;5055840;28;19925;-51
2022/08/08 09:53:23;;;;;;;;;;;;;;;31.23;43.69;99798.41;5061677;28;19919;-53
2022/08/08 09:55:48;;;;;;;;;;;;;;;31.37;48.54;99804.91;5057861;28;19920;-50
2022/08/08 09:58:20;;;;;;;;;;;;;;;30.72;42.35;99797.53;5062921;28;19993;-52
2022/08/08 10:00:46;;;;;;;;;;;;;;;31.30;43.73;99803.06;5059699;28;20239;-51
2022/08/08 10:03:13;;;;;;;;;;;;;;;31.22;40.38;99796.72;5061922;28;20623;-49
2022/08/08 10:05:38;;;;;;;;;;;;;;;33.06;42.01;99801.56;5054598;28;19916;-48
2022/08/08 10:08:03;;;;;;;;;;;;;;;30.62;38.75;99802.13;5060981;28;19973;-52
2022/08/08 10:10:31;;;;;;;;;;;;;;;32.86;38.84;99798.44;5057928;28;20218;-52
2022/08/08 10:12:57;;;;;;;;;;;;;;;31.16;38.10;99800.03;5056347;28;19952;-51
2022/08/08 10:15:23;;;;;;;;;;;;;;;31.83;39.02;99799.97;5059016;28;19916;-53
2022/08/08 10:17:49;;;;;;;;;;;;;;;32.83;38.30;99804.16;5061811;28;20374;-52
2022/08/08 10:20:14;;;;;;;;;;;;;;;31.37;38.20;99801.41;5055921;28;19917;-52
2022/08/08 10:23:00;;;;;;;;;;;;;;;33.02;38.25;99808.22;5055430;28;19920;-52
2022/08/08 10:25:26;;;;;;;;;;;;;;;32.75;37.51;99791.66;5052816;28;19921;-53
2022/08/08 10:27:54;;;;;;;;;;;;;;;32.15;36.41;99797.47;5054151;28;19931;-53
2022/08/08 10:30:20;;;;;;;;;;;;;;;31.89;35.50;99795.81;5056696;28;19920;-53
2022/08/08 10:32:49;;;;;;;;;;;;;;;32.68;35.17;99790.69;5057426;28;19923;-52
2022/08/08 10:35:15;;;;;;;;;;;;;;;31.50;35.20;99796.47;5053654;28;20208;-54
2022/08/08 10:37:49;;;;;;;;;;;;;;;32.76;37.90;99793.34;5065871;28;19916;-54
2022/08/08 10:40:15;;;;;;;;;;;;;;;32.89;37.38;99798.09;5057574;28;20428;-54
2022/08/08 10:42:40;;;;;;;;;;;;;;;31.70;36.02;99790.81;5061048;28;19920;-53
2022/08/08 10:45:06;;;;;;;;;;;;;;;33.37;36.40;99792.69;5056284;28;19938;-52
2022/08/08 10:47:32;;;;;;;;;;;;;;;31.19;37.87;99799.72;5057558;28;20082;-53
2022/08/08 10:49:58;;;;;;;;;;;;;;;32.69;37.05;99792.38;5058564;28;19955;-54
2022/08/08 10:52:23;;;;;;;;;;;;;;;33.86;33.20;99789.66;5057436;28;20031;-52
2022/08/08 10:54:52;;;;;;;;;;;;;;;33.04;35.22;99790.19;5061453;28;19926;-52
2022/08/08 10:57:17;;;;;;;;;;;;;;;33.27;33.47;99784.91;5057701;28;19977;-54
2022/08/08 10:59:44;;;;;;;;;;;;;;;35.18;33.59;99784.53;5049560;28;20370;-52
2022/08/08 11:02:09;;;;;;;;;;;;;;;34.46;33.86;99791.41;5059192;28;20535;-52
2022/08/08 11:04:43;;;;;;;;;;;;;;;34.66;32.78;99785.53;5059363;28;19917;-53
2022/08/08 11:07:08;;;;;;;;;;;;;;;34.17;33.29;99781.56;5059080;28;19931;-53
2022/08/08 11:09:33;;;;;;;;;;;;;;;34.38;33.19;99778.13;5058242;28;19935;-52
2022/08/08 11:12:00;;;;;;;;;;;;;;;31.22;35.24;99788.72;5060254;28;19917;-52
2022/08/08 11:14:25;;;;;;;;;;;;;;;32.91;38.29;99788.94;5064837;28;19927;-52
2022/08/08 11:16:51;;;;;;;;;;;;;;;33.09;35.84;99782.50;5061305;28;19920;-54
2022/08/08 11:19:16;;;;;;;;;;;;;;;34.05;32.74;99773.09;5057823;28;19916;-52
2022/08/08 11:21:44;;;;;;;;;;;;;;;34.78;33.37;99778.66;5066636;28;19916;-52
2022/08/08 11:24:09;;;;;;;;;;;;;;;32.91;35.95;99783.59;5061127;28;19980;-50
2022/08/08 11:26:37;;;;;;;;;;;;;;;33.25;36.59;99785.06;5066552;28;20898;-53
2022/08/08 11:29:03;;;;;;;;;;;;;;;33.43;36.76;99783.97;5059594;28;19920;-52
2022/08/08 11:31:36;;;;;;;;;;;;;;;35.37;34.07;99772.34;5061470;28;20654;-52
2022/08/08 11:34:02;;;;;;;;;;;;;;;33.79;33.18;99770.03;5064951;28;19912;-52
2022/08/08 11:36:27;;;;;;;;;;;;;;;33.39;33.95;99771.97;5064074;28;20011;-52
2022/08/08 11:38:52;;;;;;;;;;;;;;;33.90;32.32;99764.25;5053849;28;19921;-53
2022/08/08 11:41:17;;;;;;;;;;;;;;;34.43;33.76;99770.38;5057126;28;19920;-53
2022/08/08 11:43:43;;;;;;;;;;;;;;;35.31;32.01;99767.78;5067599;28;19915;-53
2022/08/08 11:46:09;;;;;;;;;;;;;;;35.35;31.48;99759.16;5060356;28;20048;-53
2022/08/08 11:48:34;;;;;;;;;;;;;;;36.05;33.29;99769.22;5065465;28;19930;-52
2022/08/08 11:50:59;;;;;;;;;;;;;;;35.96;29.89;99750.59;5062733;28;20389;-54
2022/08/08 11:53:24;;;;;;;;;;;;;;;35.31;32.15;99759.75;5061078;28;20296;-53
2022/08/08 11:55:50;;;;;;;;;;;;;;;35.29;32.15;99754.56;5070463;28;20680;-52
2022/08/08 11:58:16;;;;;;;;;;;;;;;35.97;31.81;99756.78;5061415;28;20340;-51
2022/08/08 12:00:48;;;;;;;;;;;;;;;35.32;30.53;99748.81;5058371;28;19961;-52
2022/08/08 12:03:23;;;;;;;;;;;;;;;36.02;31.49;99754.34;5059228;28;20625;-53
2022/08/08 12:05:49;;;;;;;;;;;;;;;35.88;31.72;99752.59;5056500;28;19977;-53
2022/08/08 12:08:14;;;;;;;;;;;;;;;36.91;29.93;99753.59;5063175;28;19916;-54
2022/08/08 12:10:49;;;;;;;;;;;;;;;36.27;32.21;99757.44;5063807;28;19924;-54
2022/08/08 12:13:15;;;;;;;;;;;;;;;36.38;31.37;99753.34;5068537;28;20451;-54
2022/08/08 12:15:47;;;;;;;;;;;;;;;35.54;31.24;99746.13;5063099;28;19967;-54
2022/08/08 12:18:12;;;;;;;;;;;;;;;35.94;33.75;99752.63;5060658;28;20011;-53
2022/08/08 12:20:38;;;;;;;;;;;;;;;36.42;31.97;99754.59;5068212;28;19927;-54
2022/08/08 12:23:03;;;;;;;;;;;;;;;35.75;31.86;99751.47;5068018;28;20369;-54
2022/08/08 12:25:30;;;;;;;;;;;;;;;37.03;31.20;99745.75;5056537;28;19917;-54
2022/08/08 12:28:06;;;;;;;;;;;;;;;34.86;29.34;99738.44;5061220;28;19932;-55
2022/08/08 12:30:31;;;;;;;;;;;;;;;37.45;31.91;99747.31;5063092;28;19924;-53
2022/08/08 12:33:00;;;;;;;;;;;;;;;37.37;29.54;99736.75;5060102;28;19955;-53
2022/08/08 12:35:32;;;;;;;;;;;;;;;37.71;29.58;99736.78;5073496;28;19966;-55
2022/08/08 12:38:06;;;;;;;;;;;;;;;38.26;29.67;99740.84;5060432;28;20003;-53
2022/08/08 12:40:37;;;;;;;;;;;;;;;37.36;28.72;99740.47;5059506;28;19920;-54
2022/08/08 12:43:02;;;;;;;;;;;;;;;35.52;31.61;99742.81;5058326;28;19997;-54
2022/08/08 12:45:46;;;;;;;;;;;;;;;36.55;29.53;99740.44;5059276;28;20015;-55
2022/08/08 12:48:18;;;;;;;;;;;;;;;36.85;30.79;99744.47;5057731;28;19988;-56
2022/08/08 12:50:48;;;;;;;;;;;;;;;37.61;29.34;99737.19;5058580;28;19970;-55
2022/08/08 12:53:32;;;;;;;;;;;;;;;36.64;28.42;99742.75;5057468;28;20510;-54
2022/08/08 12:55:58;;;;;;;;;;;;;;;35.11;29.74;99740.75;5056474;28;19924;-55